sensor_id;sensor_type;location;lat;lon;timestamp;pressure;altitude;pressure_sealevel;temperature;humidity
54910;BME280;63189;51.240;9.964;2024-01-15T00:00:08;96199.84;;;-1.82;100.00
54910;BME280;63189;51.240;9.964;2024-01-15T00:02:33;96201.59;;;-1.85;100.00
54910;BME280;63189;51.240;9.964;2024-01-15T00:04:59;96188.00;;;-1.87;100.00
54910;BME280;63189;51.240;9.964;2024-01-15T00:07:24;96190.53;;;-1.89;100.00
54910;BME280;63189;51.240;9.964;2024-01-15T00:09:49;96191.38;;;-1.88;100.00
54910;BME280;63189;51.240;9.964;2024-01-15T00:12:15;96180.28;;;-1.83;100.00
54910;BME280;63189;51.240;9.964;2024-01-15T00:14:40;96186.19;;;-1.79;100.00
54910;BME280;63189;51.240;9.964;2024-01-15T00:17:05;96191.28;;;-1.79;100.00
54910;BME280;63189;51.240;9.964;2024-01-15T00:19:31;96186.13;;;-1.73;100.00
54910;BME280;63189;51.240;9.964;2024-01-15T00:21:57;96183.63;;;-1.76;100.00
54910;BME280;63189;51.240;9.964;2024-01-15T00:24:22;96169.13;;;-1.76;100.00
54910;BME280;63189;51.240;9.964;2024-01-15T00:26:48;96175.97;;;-1.79;100.00
54910;BME280;63189;51.240;9.964;2024-01-15T00:29:13;96161.50;;;-1.77;100.00
54910;BME280;63189;51.240;9.964;2024-01-15T00:31:38;96148.75;;;-1.82;100.00
54910;BME280;63189;51.240;9.964;2024-01-15T00:34:04;96145.41;;;-1.87;100.00
54910;BME280;63189;51.240;9.964;2024-01-15T00:36:29;96170.00;;;-1.80;100.00
54910;BME280;63189;51.240;9.964;2024-01-15T00:38:54;96158.13;;;-1.82;100.00
54910;BME280;63189;51.240;9.964;2024-01-15T00:41:19;96162.41;;;-1.84;100.00
54910;BME280;63189;51.240;9.964;2024-01-15T00:43:45;96161.50;;;-1.80;100.00
54910;BME280;63189;51.240;9.964;2024-01-15T00:46:11;96152.25;;;-1.87;100.00
54910;BME280;63189;51.240;9.964;2024-01-15T00:48:36;96158.19;;;-1.90;100.00
54910;BME280;63189;51.240;9.964;2024-01-15T00:51:02;96161.56;;;-1.88;100.00
54910;BME280;63189;51.240;9.964;2024-01-15T00:53:28;96156.47;;;-1.86;100.00
54910;BME280;63189;51.240;9.964;2024-01-15T00:55:53;96152.22;;;-1.89;100.00
54910;BME280;63189;51.240;9.964;2024-01-15T00:58:18;96138.63;;;-1.89;100.00
54910;BME280;63189;51.240;9.964;2024-01-15T01:00:44;96148.81;;;-1.86;100.00
54910;BME280;63189;51.240;9.964;2024-01-15T01:03:09;96130.97;;;-1.91;100.00
54910;BME280;63189;51.240;9.964;2024-01-15T01:05:34;96134.44;;;-1.96;100.00
54910;BME280;63189;51.240;9.964;2024-01-15T01:08:00;96137.88;;;-1.97;100.00
54910;BME280;63189;51.240;9.964;2024-01-15T01:10:25;96140.38;;;-1.94;100.00
54910;BME280;63189;51.240;9.964;2024-01-15T01:12:50;96156.50;;;-1.91;100.00
54910;BME280;63189;51.240;9.964;2024-01-15T01:15:16;96152.19;;;-1.84;100.00
54910;BME280;63189;51.240;9.964;2024-01-15T01:17:41;96155.63;;;-1.88;100.00
54910;BME280;63189;51.240;9.964;2024-01-15T01:20:07;96156.47;;;-1.88;100.00
54910;BME280;63189;51.240;9.964;2024-01-15T01:22:34;96155.66;;;-1.91;100.00
54910;BME280;63189;51.240;9.964;2024-01-15T01:24:59;96168.47;;;-1.93;100.00
54910;BME280;63189;51.240;9.964;2024-01-15T01:27:25;96150.63;;;-1.97;100.00
54910;BME280;63189;51.240;9.964;2024-01-15T01:29:50;96162.47;;;-1.90;100.00
54910;BME280;63189;51.240;9.964;2024-01-15T01:32:15;96161.69;;;-1.97;100.00
54910;BME280;63189;51.240;9.964;2024-01-15T01:34:41;96157.38;;;-1.92;100.00
54910;BME280;63189;51.240;9.964;2024-01-15T01:37:10;96148.03;;;-1.93;100.00
54910;BME280;63189;51.240;9.964;2024-01-15T01:39:38;96155.66;;;-1.91;100.00
54910;BME280;63189;51.240;9.964;2024-01-15T01:42:03;96148.03;;;-1.93;100.00
54910;BME280;63189;51.240;9.964;2024-01-15T01:44:29;96160.75;;;-1.90;100.00
54910;BME280;63189;51.240;9.964;2024-01-15T01:46:54;96173.56;;;-1.93;100.00
54910;BME280;63189;51.240;9.964;2024-01-15T01:49:20;96162.47;;;-1.90;100.00
54910;BME280;63189;51.240;9.964;2024-01-15T01:51:46;96152.28;;;-1.93;100.00
54910;BME280;63189;51.240;9.964;2024-01-15T01:54:12;96165.88;;;-1.91;100.00
54910;BME280;63189;51.240;9.964;2024-01-15T01:56:39;96156.47;;;-1.86;100.00
54910;BME280;63189;51.240;9.964;2024-01-15T01:59:06;96158.13;;;-1.82;100.00
54910;BME280;63189;51.240;9.964;2024-01-15T02:01:32;96156.41;;;-1.82;100.00
54910;BME280;63189;51.240;9.964;2024-01-15T02:03:58;96154.78;;;-1.86;100.00
54910;BME280;63189;51.240;9.964;2024-01-15T02:06:24;96163.25;;;-1.84;100.00
54910;BME280;63189;51.240;9.964;2024-01-15T02:08:50;96163.28;;;-1.88;100.00
54910;BME280;63189;51.240;9.964;2024-01-15T02:11:15;96154.78;;;-1.89;100.00
54910;BME280;63189;51.240;9.964;2024-01-15T02:13:40;96155.63;;;-1.88;100.00
54910;BME280;63189;51.240;9.964;2024-01-15T02:16:06;96163.38;;;-1.96;100.00
54910;BME280;63189;51.240;9.964;2024-01-15T02:18:44;96172.69;;;-1.92;100.00
54910;BME280;63189;51.240;9.964;2024-01-15T02:21:10;96160.75;;;-1.90;100.00
54910;BME280;63189;51.240;9.964;2024-01-15T02:23:36;96148.84;;;-1.91;100.00
54910;BME280;63189;51.240;9.964;2024-01-15T02:26:01;96158.25;;;-1.93;100.00
54910;BME280;63189;51.240;9.964;2024-01-15T02:28:27;96153.97;;;-1.92;100.00
54910;BME280;63189;51.240;9.964;2024-01-15T02:30:52;96160.78;;;-1.93;100.00
54910;BME280;63189;51.240;9.964;2024-01-15T02:33:18;96155.69;;;-1.93;100.00
54910;BME280;63189;51.240;9.964;2024-01-15T02:35:43;96171.00;;;-1.91;100.00
54910;BME280;63189;51.240;9.964;2024-01-15T02:38:08;96161.66;;;-1.94;100.00
54910;BME280;63189;51.240;9.964;2024-01-15T02:40:34;96165.03;;;-1.90;100.00
54910;BME280;63189;51.240;9.964;2024-01-15T02:43:00;96167.56;;;-1.90;100.00
54910;BME280;63189;51.240;9.964;2024-01-15T02:45:25;96173.50;;;-1.87;100.00
54910;BME280;63189;51.240;9.964;2024-01-15T02:47:51;96174.34;;;-1.88;100.00
54910;BME280;63189;51.240;9.964;2024-01-15T02:50:16;96181.19;;;-1.87;100.00
54910;BME280;63189;51.240;9.964;2024-01-15T02:52:41;96175.19;;;-1.86;100.00
54910;BME280;63189;51.240;9.964;2024-01-15T02:55:07;96171.78;;;-1.85;100.00
54910;BME280;63189;51.240;9.964;2024-01-15T02:57:33;96175.19;;;-1.84;100.00
54910;BME280;63189;51.240;9.964;2024-01-15T02:59:58;96193.88;;;-1.81;100.00
54910;BME280;63189;51.240;9.964;2024-01-15T03:02:23;96181.97;;;-1.83;100.00
54910;BME280;63189;51.240;9.964;2024-01-15T03:04:49;96192.97;;;-1.78;100.00
54910;BME280;63189;51.240;9.964;2024-01-15T03:07:14;96183.59;;;-1.78;100.00
54910;BME280;63189;51.240;9.964;2024-01-15T03:09:39;96174.28;;;-1.82;100.00
54910;BME280;63189;51.240;9.964;2024-01-15T03:12:05;96177.66;;;-1.78;100.00
54910;BME280;63189;51.240;9.964;2024-01-15T03:14:30;96192.09;;;-1.72;100.00
54910;BME280;63189;51.240;9.964;2024-01-15T03:16:56;96177.59;;;-1.72;100.00
54910;BME280;63189;51.240;9.964;2024-01-15T03:19:21;96178.47;;;-1.73;100.00
54910;BME280;63189;51.240;9.964;2024-01-15T03:21:46;96180.19;;;-1.73;100.00
54910;BME280;63189;51.240;9.964;2024-01-15T03:24:12;96170.81;;;-1.73;100.00
54910;BME280;63189;51.240;9.964;2024-01-15T03:26:37;96181.03;;;-1.73;100.00
54910;BME280;63189;51.240;9.964;2024-01-15T03:29:02;96157.22;;;-1.78;100.00
54910;BME280;63189;51.240;9.964;2024-01-15T03:31:28;96168.19;;;-1.70;100.00
54910;BME280;63189;51.240;9.964;2024-01-15T03:33:53;96176.72;;;-1.69;100.00
54910;BME280;63189;51.240;9.964;2024-01-15T03:36:18;96173.28;;;-1.67;100.00
54910;BME280;63189;51.240;9.964;2024-01-15T03:38:44;96162.22;;;-1.66;100.00
54910;BME280;63189;51.240;9.964;2024-01-15T03:41:09;96152.00;;;-1.69;100.00
54910;BME280;63189;51.240;9.964;2024-01-15T03:43:34;96157.09;;;-1.67;100.00
54910;BME280;63189;51.240;9.964;2024-01-15T03:45:59;96159.63;;;-1.64;100.00
54910;BME280;63189;51.240;9.964;2024-01-15T03:48:25;96160.53;;;-1.70;100.00
54910;BME280;63189;51.240;9.964;2024-01-15T03:50:50;96152.91;;;-1.73;100.00
54910;BME280;63189;51.240;9.964;2024-01-15T03:53:15;96148.59;;;-1.68;100.00
54910;BME280;63189;51.240;9.964;2024-01-15T03:55:42;96170.69;;;-1.64;100.00
54910;BME280;63189;51.240;9.964;2024-01-15T03:58:07;96160.50;;;-1.67;100.00
54910;BME280;63189;51.240;9.964;2024-01-15T04:00:32;96149.44;;;-1.67;100.00
54910;BME280;63189;51.240;9.964;2024-01-15T04:02:57;96170.69;;;-1.62;100.00
54910;BME280;63189;51.240;9.964;2024-01-15T04:05:23;96171.47;;;-1.59;100.00
54910;BME280;63189;51.240;9.964;2024-01-15T04:07:48;96170.69;;;-1.64;100.00
54910;BME280;63189;51.240;9.964;2024-01-15T04:10:13;96162.97;;;-1.59;100.00
54910;BME280;63189;51.240;9.964;2024-01-15T04:12:39;96168.06;;;-1.56;100.00
54910;BME280;63189;51.240;9.964;2024-01-15T04:15:04;96172.31;;;-1.57;100.00
54910;BME280;63189;51.240;9.964;2024-01-15T04:17:30;96185.84;;;-1.49;100.00
54910;BME280;63189;51.240;9.964;2024-01-15T04:19:55;96177.31;;;-1.48;100.00
54910;BME280;63189;51.240;9.964;2024-01-15T04:22:20;96170.56;;;-1.52;100.00
54910;BME280;63189;51.240;9.964;2024-01-15T04:24:46;96171.31;;;-1.47;100.00
54910;BME280;63189;51.240;9.964;2024-01-15T04:27:11;96166.25;;;-1.48;100.00
54910;BME280;63189;51.240;9.964;2024-01-15T04:29:39;96165.38;;;-1.46;100.00
54910;BME280;63189;51.240;9.964;2024-01-15T04:32:05;96154.28;;;-1.44;100.00
54910;BME280;63189;51.240;9.964;2024-01-15T04:34:30;96144.06;;;-1.44;100.00
54910;BME280;63189;51.240;9.964;2024-01-15T04:36:56;96153.44;;;-1.47;100.00
54910;BME280;63189;51.240;9.964;2024-01-15T04:39:21;96142.38;;;-1.46;100.00
54910;BME280;63189;51.240;9.964;2024-01-15T04:41:47;96147.50;;;-1.49;100.00
54910;BME280;63189;51.240;9.964;2024-01-15T04:44:12;96131.41;;;-1.54;100.00
54910;BME280;63189;51.240;9.964;2024-01-15T04:46:38;96138.25;;;-1.56;100.00
54910;BME280;63189;51.240;9.964;2024-01-15T04:49:03;96135.69;;;-1.57;100.00
54910;BME280;63189;51.240;9.964;2024-01-15T04:51:28;96128.84;;;-1.57;100.00
54910;BME280;63189;51.240;9.964;2024-01-15T04:53:53;96125.47;;;-1.56;100.00
54910;BME280;63189;51.240;9.964;2024-01-15T04:56:19;96131.41;;;-1.54;100.00
54910;BME280;63189;51.240;9.964;2024-01-15T04:58:44;96128.78;;;-1.51;100.00
54910;BME280;63189;51.240;9.964;2024-01-15T05:01:10;96126.19;;;-1.48;100.00
54910;BME280;63189;51.240;9.964;2024-01-15T05:03:35;96114.38;;;-1.55;100.00
54910;BME280;63189;51.240;9.964;2024-01-15T05:06:00;96130.47;;;-1.50;100.00
54910;BME280;63189;51.240;9.964;2024-01-15T05:08:26;96120.34;;;-1.54;100.00
54910;BME280;63189;51.240;9.964;2024-01-15T05:10:51;96127.16;;;-1.55;100.00
54910;BME280;63189;51.240;9.964;2024-01-15T05:13:16;96128.00;;;-1.54;100.00
54910;BME280;63189;51.240;9.964;2024-01-15T05:15:42;96114.38;;;-1.55;100.00
54910;BME280;63189;51.240;9.964;2024-01-15T05:18:07;96119.50;;;-1.56;100.00
54910;BME280;63189;51.240;9.964;2024-01-15T05:20:32;96106.75;;;-1.56;100.00
54910;BME280;63189;51.240;9.964;2024-01-15T05:22:58;96107.59;;;-1.59;100.00
54910;BME280;63189;51.240;9.964;2024-01-15T05:25:23;96109.34;;;-1.62;100.00
54910;BME280;63189;51.240;9.964;2024-01-15T05:27:49;96106.03;;;-1.69;100.00
54910;BME280;63189;51.240;9.964;2024-01-15T05:30:14;96101.72;;;-1.67;100.00
54910;BME280;63189;51.240;9.964;2024-01-15T05:32:39;96084.72;;;-1.68;100.00
54910;BME280;63189;51.240;9.964;2024-01-15T05:35:05;96088.94;;;-1.64;100.00
54910;BME280;63189;51.240;9.964;2024-01-15T05:37:31;96094.09;;;-1.68;100.00
54910;BME280;63189;51.240;9.964;2024-01-15T05:39:56;96086.53;;;-1.75;100.00
54910;BME280;63189;51.240;9.964;2024-01-15T05:42:21;96082.31;;;-1.77;100.00
54910;BME280;63189;51.240;9.964;2024-01-15T05:44:46;96074.66;;;-1.80;100.00
54910;BME280;63189;51.240;9.964;2024-01-15T05:47:12;96079.81;;;-1.83;100.00
54910;BME280;63189;51.240;9.964;2024-01-15T05:49:37;96088.28;;;-1.81;100.00
54910;BME280;63189;51.240;9.964;2024-01-15T05:52:03;96080.63;;;-1.81;100.00
54910;BME280;63189;51.240;9.964;2024-01-15T05:54:29;96083.22;;;-1.84;100.00
54910;BME280;63189;51.240;9.964;2024-01-15T05:56:54;96089.22;;;-1.85;100.00
54910;BME280;63189;51.240;9.964;2024-01-15T05:59:19;96073.06;;;-1.90;100.00
54910;BME280;63189;51.240;9.964;2024-01-15T06:01:44;96078.22;;;-1.93;100.00
54910;BME280;63189;51.240;9.964;2024-01-15T06:04:10;96068.94;;;-1.97;100.00
54910;BME280;63189;51.240;9.964;2024-01-15T06:06:35;96078.31;;;-2.01;100.00
54910;BME280;63189;51.240;9.964;2024-01-15T06:09:00;96091.06;;;-1.99;100.00
54910;BME280;63189;51.240;9.964;2024-01-15T06:11:33;96085.09;;;-1.98;100.00
54910;BME280;63189;51.240;9.964;2024-01-15T06:13:58;96083.38;;;-1.96;100.00
54910;BME280;63189;51.240;9.964;2024-01-15T06:16:25;96081.66;;;-1.96;100.00
54910;BME280;63189;51.240;9.964;2024-01-15T06:18:51;96075.69;;;-1.93;100.00
54910;BME280;63189;51.240;9.964;2024-01-15T06:21:16;96085.00;;;-1.91;100.00
54910;BME280;63189;51.240;9.964;2024-01-15T06:23:42;96086.69;;;-1.90;100.00
54910;BME280;63189;51.240;9.964;2024-01-15T06:26:11;96087.53;;;-1.86;100.00
54910;BME280;63189;51.240;9.964;2024-01-15T06:28:37;96090.91;;;-1.84;100.00
54910;BME280;63189;51.240;9.964;2024-01-15T06:31:03;96080.63;;;-1.81;100.00
54910;BME280;63189;51.240;9.964;2024-01-15T06:33:28;96076.34;;;-1.79;100.00
54910;BME280;63189;51.240;9.964;2024-01-15T06:35:54;96090.06;;;-1.86;100.00
54910;BME280;63189;51.240;9.964;2024-01-15T06:38:19;96080.75;;;-1.90;100.00
54910;BME280;63189;51.240;9.964;2024-01-15T06:40:44;96087.53;;;-1.89;100.00
54910;BME280;63189;51.240;9.964;2024-01-15T06:43:11;96073.91;;;-1.88;100.00
54910;BME280;63189;51.240;9.964;2024-01-15T06:45:36;96080.69;;;-1.84;100.00
54910;BME280;63189;51.240;9.964;2024-01-15T06:48:02;96071.34;;;-1.87;100.00
54910;BME280;63189;51.240;9.964;2024-01-15T06:50:27;96068.81;;;-1.87;100.00
54910;BME280;63189;51.240;9.964;2024-01-15T06:52:52;96068.81;;;-1.87;100.00
54910;BME280;63189;51.240;9.964;2024-01-15T06:55:18;96070.47;;;-1.84;100.00
54910;BME280;63189;51.240;9.964;2024-01-15T06:57:43;96072.22;;;-1.89;100.00
54910;BME280;63189;51.240;9.964;2024-01-15T07:00:09;96070.50;;;-1.87;100.00
54910;BME280;63189;51.240;9.964;2024-01-15T07:02:34;96082.38;;;-1.83;100.00
54910;BME280;63189;51.240;9.964;2024-01-15T07:04:59;96082.31;;;-1.80;100.00
54910;BME280;63189;51.240;9.964;2024-01-15T07:07:25;96078.94;;;-1.82;100.00
54910;BME280;63189;51.240;9.964;2024-01-15T07:09:54;96059.41;;;-1.88;100.00
54910;BME280;63189;51.240;9.964;2024-01-15T07:12:19;96080.63;;;-1.81;100.00
54910;BME280;63189;51.240;9.964;2024-01-15T07:14:44;96087.41;;;-1.77;100.00
54910;BME280;63189;51.240;9.964;2024-01-15T07:17:10;96089.06;;;-1.73;100.00
54910;BME280;63189;51.240;9.964;2024-01-15T07:19:35;96093.28;;;-1.70;100.00
54910;BME280;63189;51.240;9.964;2024-01-15T07:22:01;96097.53;;;-1.71;100.00
54910;BME280;63189;51.240;9.964;2024-01-15T07:24:27;96095.81;;;-1.70;100.00
54910;BME280;63189;51.240;9.964;2024-01-15T07:26:52;96073.72;;;-1.73;100.00
54910;BME280;63189;51.240;9.964;2024-01-15T07:29:17;96077.13;;;-1.72;100.00
54910;BME280;63189;51.240;9.964;2024-01-15T07:31:48;96093.22;;;-1.67;100.00
54910;BME280;63189;51.240;9.964;2024-01-15T07:34:14;96096.66;;;-1.68;100.00
54910;BME280;63189;51.240;9.964;2024-01-15T07:36:39;96089.06;;;-1.73;100.00
54910;BME280;63189;51.240;9.964;2024-01-15T07:39:04;96100.88;;;-1.64;100.00
54910;BME280;63189;51.240;9.964;2024-01-15T07:41:30;96097.44;;;-1.63;100.00
54910;BME280;63189;51.240;9.964;2024-01-15T07:43:55;96095.78;;;-1.66;100.00
54910;BME280;63189;51.240;9.964;2024-01-15T07:46:20;96104.34;;;-1.70;100.00
54910;BME280;63189;51.240;9.964;2024-01-15T07:48:46;96103.47;;;-1.69;100.00
54910;BME280;63189;51.240;9.964;2024-01-15T07:51:11;96094.22;;;-1.76;100.00
54910;BME280;63189;51.240;9.964;2024-01-15T07:53:36;96106.13;;;-1.78;100.00
54910;BME280;63189;51.240;9.964;2024-01-15T07:56:02;96108.69;;;-1.80;100.00
54910;BME280;63189;51.240;9.964;2024-01-15T07:58:27;96111.25;;;-1.78;100.00
54910;BME280;63189;51.240;9.964;2024-01-15T08:00:52;96123.16;;;-1.79;100.00
54910;BME280;63189;51.240;9.964;2024-01-15T08:03:17;96092.63;;;-1.89;100.00
54910;BME280;63189;51.240;9.964;2024-01-15T08:05:43;96118.06;;;-1.80;100.00
54910;BME280;63189;51.240;9.964;2024-01-15T08:08:08;96123.19;;;-1.77;100.00
54910;BME280;63189;51.240;9.964;2024-01-15T08:10:34;96117.19;;;-1.75;100.00
54910;BME280;63189;51.240;9.964;2024-01-15T08:12:59;96127.28;;;-1.65;100.00
54910;BME280;63189;51.240;9.964;2024-01-15T08:15:24;96123.03;;;-1.65;100.00
54910;BME280;63189;51.240;9.964;2024-01-15T08:17:49;96116.09;;;-1.57;100.00
54910;BME280;63189;51.240;9.964;2024-01-15T08:20:15;96095.78;;;-1.66;100.00
54910;BME280;63189;51.240;9.964;2024-01-15T08:22:41;96107.41;;;-1.43;100.00
54910;BME280;63189;51.240;9.964;2024-01-15T08:25:06;96102.19;;;-1.37;100.00
54910;BME280;63189;51.240;9.964;2024-01-15T08:27:32;96099.41;;;-1.19;100.00
54910;BME280;63189;51.240;9.964;2024-01-15T08:29:57;96101.91;;;-1.16;100.00
54910;BME280;63189;51.240;9.964;2024-01-15T08:32:22;96101.94;;;-1.18;100.00
54910;BME280;63189;51.240;9.964;2024-01-15T08:34:48;96103.72;;;-1.23;100.00
54910;BME280;63189;51.240;9.964;2024-01-15T08:37:17;96102.03;;;-1.25;100.00
54910;BME280;63189;51.240;9.964;2024-01-15T08:39:42;96103.75;;;-1.27;100.00
54910;BME280;63189;51.240;9.964;2024-01-15T08:42:08;96093.59;;;-1.30;100.00
54910;BME280;63189;51.240;9.964;2024-01-15T08:44:33;96077.34;;;-1.28;100.00
54910;BME280;63189;51.240;9.964;2024-01-15T08:46:58;96089.16;;;-1.19;100.00
54910;BME280;63189;51.240;9.964;2024-01-15T08:49:23;96094.19;;;-1.11;100.00
54910;BME280;63189;51.240;9.964;2024-01-15T08:51:49;96089.84;;;-1.08;100.00
54910;BME280;63189;51.240;9.964;2024-01-15T08:54:14;96101.78;;;-1.07;100.00
54910;BME280;63189;51.240;9.964;2024-01-15T08:56:39;96094.50;;;-0.77;100.00
54910;BME280;63189;51.240;9.964;2024-01-15T08:59:05;96086.53;;;-0.59;100.00
54910;BME280;63189;51.240;9.964;2024-01-15T09:01:30;96075.31;;;-0.52;100.00
54910;BME280;63189;51.240;9.964;2024-01-15T09:03:56;96094.38;;;-0.22;100.00
54910;BME280;63189;51.240;9.964;2024-01-15T09:06:21;96076.00;;;0.04;100.00
54910;BME280;63189;51.240;9.964;2024-01-15T09:08:46;96104.91;;;0.11;100.00
54910;BME280;63189;51.240;9.964;2024-01-15T09:11:12;96101.84;;;0.35;99.80
54910;BME280;63189;51.240;9.964;2024-01-15T09:13:37;96102.13;;;0.20;99.85
54910;BME280;63189;51.240;9.964;2024-01-15T09:16:03;96100.38;;;0.23;100.00
54910;BME280;63189;51.240;9.964;2024-01-15T09:18:29;96106.72;;;0.04;99.75
54910;BME280;63189;51.240;9.964;2024-01-15T09:20:55;96100.09;;;0.37;99.30
54910;BME280;63189;51.240;9.964;2024-01-15T09:23:20;96096.13;;;1.01;97.61
54910;BME280;63189;51.240;9.964;2024-01-15T09:25:45;96100.72;;;1.24;94.31
54910;BME280;63189;51.240;9.964;2024-01-15T09:28:11;96088.22;;;2.13;92.03
54910;BME280;63189;51.240;9.964;2024-01-15T09:30:36;96076.34;;;2.38;86.78
54910;BME280;63189;51.240;9.964;2024-01-15T09:33:02;96087.16;;;1.87;87.99
54910;BME280;63189;51.240;9.964;2024-01-15T09:35:27;96087.34;;;1.81;87.92
54910;BME280;63189;51.240;9.964;2024-01-15T09:37:52;96079.97;;;1.33;90.96
54910;BME280;63189;51.240;9.964;2024-01-15T09:40:20;96092.78;;;1.35;91.21
54910;BME280;63189;51.240;9.964;2024-01-15T09:42:46;96090.59;;;0.81;92.57
54910;BME280;63189;51.240;9.964;2024-01-15T09:45:11;96091.66;;;0.72;94.49
54910;BME280;63189;51.240;9.964;2024-01-15T09:47:37;96095.06;;;0.74;95.08
54910;BME280;63189;51.240;9.964;2024-01-15T09:50:03;96084.72;;;0.77;95.29
54910;BME280;63189;51.240;9.964;2024-01-15T09:52:30;96094.84;;;0.82;95.16
54910;BME280;63189;51.240;9.964;2024-01-15T09:54:56;96094.69;;;0.90;93.66
54910;BME280;63189;51.240;9.964;2024-01-15T09:57:23;96101.44;;;0.94;93.11
54910;BME280;63189;51.240;9.964;2024-01-15T09:59:48;96099.75;;;1.30;90.99
54910;BME280;63189;51.240;9.964;2024-01-15T10:02:14;96097.75;;;1.75;89.14
54910;BME280;63189;51.240;9.964;2024-01-15T10:04:42;96090.69;;;2.16;87.82
54910;BME280;63189;51.240;9.964;2024-01-15T10:07:08;96088.03;;;2.19;86.49
54910;BME280;63189;51.240;9.964;2024-01-15T10:09:34;96089.34;;;1.70;87.31
54910;BME280;63189;51.240;9.964;2024-01-15T10:11:59;96093.13;;;1.55;88.96
54910;BME280;63189;51.240;9.964;2024-01-15T10:14:24;96093.47;;;1.41;89.91
54910;BME280;63189;51.240;9.964;2024-01-15T10:16:50;96100.91;;;1.52;90.51
54910;BME280;63189;51.240;9.964;2024-01-15T10:19:15;96083.81;;;1.17;90.76
54910;BME280;63189;51.240;9.964;2024-01-15T10:21:40;96091.75;;;1.06;92.36
54910;BME280;63189;51.240;9.964;2024-01-15T10:24:06;96091.56;;;1.15;93.44
54910;BME280;63189;51.240;9.964;2024-01-15T10:26:32;96084.75;;;1.13;93.68
54910;BME280;63189;51.240;9.964;2024-01-15T10:29:00;96076.75;;;0.90;94.12
54910;BME280;63189;51.240;9.964;2024-01-15T10:31:26;96077.81;;;0.79;94.91
54910;BME280;63189;51.240;9.964;2024-01-15T10:33:52;96078.09;;;0.67;95.79
54910;BME280;63189;51.240;9.964;2024-01-15T10:36:17;96088.44;;;0.64;96.46
54910;BME280;63189;51.240;9.964;2024-01-15T10:38:43;96068.94;;;0.55;96.84
54910;BME280;63189;51.240;9.964;2024-01-15T10:41:09;96067.69;;;0.75;96.72
54910;BME280;63189;51.240;9.964;2024-01-15T10:43:34;96075.06;;;1.24;94.63
54910;BME280;63189;51.240;9.964;2024-01-15T10:46:00;96058.59;;;1.33;92.49
54910;BME280;63189;51.240;9.964;2024-01-15T10:48:26;96052.94;;;1.20;93.11
54910;BME280;63189;51.240;9.964;2024-01-15T10:50:53;96059.59;;;1.27;94.17
54910;BME280;63189;51.240;9.964;2024-01-15T10:53:19;96053.94;;;1.13;92.63
54910;BME280;63189;51.240;9.964;2024-01-15T10:55:46;96051.53;;;1.07;93.72
54910;BME280;63189;51.240;9.964;2024-01-15T10:58:14;96046.06;;;0.85;93.98
54910;BME280;63189;51.240;9.964;2024-01-15T11:00:40;96052.53;;;0.64;95.86
54910;BME280;63189;51.240;9.964;2024-01-15T11:03:06;96051.09;;;0.51;97.67
54910;BME280;63189;51.240;9.964;2024-01-15T11:05:44;96053.66;;;0.52;97.99
54910;BME280;63189;51.240;9.964;2024-01-15T11:08:10;96050.16;;;0.55;98.08
54910;BME280;63189;51.240;9.964;2024-01-15T11:10:51;96049.84;;;0.69;98.41
54910;BME280;63189;51.240;9.964;2024-01-15T11:13:20;96050.56;;;0.75;98.52
54910;BME280;63189;51.240;9.964;2024-01-15T11:16:00;96057.66;;;0.64;97.93
54910;BME280;63189;51.240;9.964;2024-01-15T11:18:31;96049.13;;;0.64;98.64
54910;BME280;63189;51.240;9.964;2024-01-15T11:29:04;96056.63;;;0.33;100.00
54910;BME280;63189;51.240;9.964;2024-01-15T11:34:09;96049.16;;;0.22;100.00
54910;BME280;63189;51.240;9.964;2024-01-15T11:37:01;96060.00;;;0.35;100.00
54910;BME280;63189;51.240;9.964;2024-01-15T11:41:56;96047.59;;;0.55;100.00
54910;BME280;63189;51.240;9.964;2024-01-15T11:44:22;96062.19;;;0.53;100.00
54910;BME280;63189;51.240;9.964;2024-01-15T11:47:05;96052.97;;;0.44;100.00
54910;BME280;63189;51.240;9.964;2024-01-15T11:50:00;96054.06;;;0.33;100.00
54910;BME280;63189;51.240;9.964;2024-01-15T11:52:31;96056.63;;;0.31;100.00
54910;BME280;63189;51.240;9.964;2024-01-15T11:55:10;96054.94;;;0.32;100.00
54910;BME280;63189;51.240;9.964;2024-01-15T11:57:46;96042.22;;;0.27;100.00
54910;BME280;63189;51.240;9.964;2024-01-15T12:00:13;96051.38;;;0.37;100.00
54910;BME280;63189;51.240;9.964;2024-01-15T12:02:39;96040.25;;;0.38;100.00
54910;BME280;63189;51.240;9.964;2024-01-15T12:05:05;96042.75;;;0.43;100.00
54910;BME280;63189;51.240;9.964;2024-01-15T12:07:30;96037.84;;;0.32;100.00
54910;BME280;63189;51.240;9.964;2024-01-15T12:09:56;96042.97;;;0.31;100.00
54910;BME280;63189;51.240;9.964;2024-01-15T12:15:09;96052.28;;;0.36;100.00
54910;BME280;63189;51.240;9.964;2024-01-15T12:17:35;96038.69;;;0.31;100.00
54910;BME280;63189;51.240;9.964;2024-01-15T12:20:00;96040.75;;;0.15;100.00
54910;BME280;63189;51.240;9.964;2024-01-15T12:22:26;96040.84;;;0.11;100.00
54910;BME280;63189;51.240;9.964;2024-01-15T12:24:53;96045.06;;;0.13;100.00
54910;BME280;63189;51.240;9.964;2024-01-15T12:27:18;96043.38;;;0.12;100.00
54910;BME280;63189;51.240;9.964;2024-01-15T12:29:44;96041.03;;;0.02;100.00
54910;BME280;63189;51.240;9.964;2024-01-15T12:32:09;96046.06;;;0.06;100.00
54910;BME280;63189;51.240;9.964;2024-01-15T12:34:37;96043.38;;;0.12;100.00
54910;BME280;63189;51.240;9.964;2024-01-15T12:37:02;96032.03;;;0.24;100.00
54910;BME280;63189;51.240;9.964;2024-01-15T12:39:28;96037.81;;;0.34;100.00
54910;BME280;63189;51.240;9.964;2024-01-15T12:41:53;96024.13;;;0.35;100.00
54910;BME280;63189;51.240;9.964;2024-01-15T12:44:19;96030.66;;;0.48;100.00
54910;BME280;63189;51.240;9.964;2024-01-15T12:46:44;96020.28;;;0.54;100.00
54910;BME280;63189;51.240;9.964;2024-01-15T12:49:10;96033.06;;;0.55;100.00
54910;BME280;63189;51.240;9.964;2024-01-15T12:51:35;96022.75;;;0.57;100.00
54910;BME280;63189;51.240;9.964;2024-01-15T12:54:00;96037.06;;;0.67;100.00
54910;BME280;63189;51.240;9.964;2024-01-15T12:56:26;96026.94;;;0.61;100.00
54910;BME280;63189;51.240;9.964;2024-01-15T12:58:51;96026.88;;;0.64;100.00
54910;BME280;63189;51.240;9.964;2024-01-15T13:01:16;96037.03;;;0.69;98.14
54910;BME280;63189;51.240;9.964;2024-01-15T13:03:42;96028.38;;;0.74;98.24